createdAt,value
2023-08-29T00:00:50.510Z,17.40
2023-08-29T00:03:38.984Z,17.40
2023-08-29T00:06:27.601Z,17.40
2023-08-29T00:09:15.888Z,17.30
2023-08-29T00:12:04.712Z,17.20
2023-08-29T00:14:54.508Z,17.20
2023-08-29T00:17:44.784Z,17.40
2023-08-29T00:20:33.849Z,17.40
2023-08-29T00:23:22.291Z,17.30
2023-08-29T00:26:10.651Z,17.30
2023-08-29T00:28:59.119Z,17.40
2023-08-29T00:31:49.618Z,17.30
2023-08-29T00:34:38.049Z,17.20
2023-08-29T00:37:26.424Z,17.00
2023-08-29T00:40:14.888Z,17.10
2023-08-29T00:43:04.071Z,17.20
2023-08-29T00:45:53.594Z,17.40
2023-08-29T00:48:44.080Z,17.40
2023-08-29T00:51:32.422Z,17.30
2023-08-29T00:54:22.448Z,17.20
2023-08-29T00:57:10.939Z,17.30
2023-08-29T00:59:59.311Z,17.10
2023-08-29T01:02:48.295Z,16.80
2023-08-29T01:05:38.076Z,16.80
2023-08-29T01:08:27.399Z,17.10
2023-08-29T01:11:22.349Z,17.40
2023-08-29T01:14:18.015Z,17.60
2023-08-29T01:17:10.384Z,17.40
2023-08-29T01:19:59.947Z,17.10
2023-08-29T01:23:13.184Z,17.00
2023-08-29T01:26:14.749Z,16.80
2023-08-29T01:29:04.952Z,17.10
2023-08-29T01:31:53.570Z,17.00
2023-08-29T01:34:43.341Z,16.90
2023-08-29T01:37:31.632Z,16.90
2023-08-29T01:40:20.007Z,16.90
2023-08-29T01:43:09.693Z,17.10
2023-08-29T01:45:58.214Z,17.10
2023-08-29T01:48:47.825Z,17.20
2023-08-29T01:51:36.281Z,17.40
2023-08-29T01:54:25.222Z,17.60
2023-08-29T01:57:16.069Z,17.40
2023-08-29T02:00:08.527Z,17.40
2023-08-29T02:03:03.283Z,17.00
2023-08-29T02:05:51.585Z,16.80
2023-08-29T02:08:40.122Z,16.80
2023-08-29T02:11:28.600Z,16.70
2023-08-29T02:14:20.033Z,16.50
2023-08-29T02:17:10.039Z,16.50
2023-08-29T02:19:59.560Z,16.30
2023-08-29T02:22:47.862Z,16.30
2023-08-29T02:25:36.145Z,16.30
2023-08-29T02:28:24.517Z,16.60
2023-08-29T02:31:14.176Z,16.70
2023-08-29T02:34:03.859Z,17.00
2023-08-29T02:36:52.181Z,17.00
2023-08-29T02:39:41.656Z,17.10
2023-08-29T02:42:29.941Z,17.10
2023-08-29T02:45:18.359Z,17.30
2023-08-29T02:48:07.910Z,17.10
2023-08-29T02:50:58.077Z,17.00
2023-08-29T02:53:46.392Z,16.90
2023-08-29T02:56:34.663Z,16.90
2023-08-29T02:59:23.012Z,16.70
2023-08-29T03:02:11.407Z,16.60
2023-08-29T03:04:59.808Z,16.60
2023-08-29T03:07:49.458Z,16.70
2023-08-29T03:10:38.122Z,16.70
2023-08-29T03:13:26.613Z,16.70
2023-08-29T03:16:18.129Z,16.70
2023-08-29T03:19:08.337Z,16.90
2023-08-29T03:21:57.163Z,16.90
2023-08-29T03:24:48.536Z,16.90
2023-08-29T03:27:36.932Z,16.90
2023-08-29T03:30:27.314Z,16.80
2023-08-29T03:33:16.786Z,16.60
2023-08-29T03:36:05.773Z,16.40
2023-08-29T03:38:54.877Z,16.40
2023-08-29T03:41:44.587Z,16.80
2023-08-29T03:44:33.031Z,17.00
2023-08-29T03:47:21.370Z,17.20
2023-08-29T03:50:10.664Z,17.30
2023-08-29T03:52:59.454Z,17.30
2023-08-29T03:55:48.482Z,17.40
2023-08-29T03:58:38.335Z,17.30
2023-08-29T04:01:27.533Z,17.30
2023-08-29T04:04:16.303Z,16.90
2023-08-29T04:07:05.799Z,16.70
2023-08-29T04:09:54.593Z,16.90
2023-08-29T04:12:43.228Z,17.00
2023-08-29T04:15:33.276Z,17.10
2023-08-29T04:18:21.814Z,17.30
2023-08-29T04:21:10.179Z,17.30
2023-08-29T04:23:58.581Z,17.30
2023-08-29T04:26:47.333Z,17.40
2023-08-29T04:29:35.761Z,17.30
2023-08-29T04:32:25.578Z,17.10
2023-08-29T04:35:13.862Z,17.20
2023-08-29T04:38:02.194Z,17.20
2023-08-29T04:40:51.494Z,17.10
2023-08-29T04:43:41.002Z,17.20
2023-08-29T04:46:29.601Z,17.20
2023-08-29T04:49:19.527Z,17.20
2023-08-29T04:52:08.105Z,17.10
2023-08-29T04:54:56.849Z,17.00
2023-08-29T04:57:45.282Z,16.90
2023-08-29T05:00:33.629Z,16.80
2023-08-29T05:03:23.357Z,16.90
2023-08-29T05:06:13.093Z,16.90
2023-08-29T05:09:01.459Z,17.00
2023-08-29T05:11:49.953Z,17.00
2023-08-29T05:14:38.466Z,16.90
2023-08-29T05:17:27.962Z,17.10
2023-08-29T05:20:17.023Z,17.10
2023-08-29T05:23:07.179Z,17.00
2023-08-29T05:25:58.366Z,16.90
2023-08-29T05:28:46.707Z,16.90
2023-08-29T05:31:35.446Z,16.90
2023-08-29T05:34:23.973Z,16.80
2023-08-29T05:37:12.605Z,16.90
2023-08-29T05:40:02.986Z,17.10
2023-08-29T05:42:51.333Z,17.20
2023-08-29T05:45:43.441Z,17.20
2023-08-29T05:48:31.838Z,17.20
2023-08-29T05:51:20.412Z,16.90
2023-08-29T05:54:08.818Z,16.70
2023-08-29T05:56:58.504Z,16.90
2023-08-29T05:59:46.950Z,16.90
2023-08-29T06:02:35.554Z,17.00
2023-08-29T06:05:24.037Z,17.20
2023-08-29T06:08:19.293Z,17.30
2023-08-29T06:11:08.504Z,17.30
2023-08-29T06:13:58.260Z,17.20
2023-08-29T06:16:46.774Z,17.30
2023-08-29T06:19:35.536Z,17.10
2023-08-29T06:22:23.977Z,17.00
2023-08-29T06:25:12.684Z,17.00
2023-08-29T06:28:01.135Z,17.10
2023-08-29T06:30:51.041Z,17.10
2023-08-29T06:33:40.606Z,17.30
2023-08-29T06:36:29.268Z,17.30
2023-08-29T06:39:18.379Z,17.30
2023-08-29T06:42:07.389Z,17.20
2023-08-29T06:44:58.831Z,17.00
2023-08-29T06:47:48.644Z,17.00
2023-08-29T06:50:37.170Z,17.20
2023-08-29T06:53:27.751Z,17.10
2023-08-29T06:56:16.151Z,16.80
2023-08-29T06:59:04.892Z,16.60
2023-08-29T07:01:53.973Z,16.60
2023-08-29T07:04:43.818Z,16.70
2023-08-29T07:07:32.292Z,17.10
2023-08-29T07:10:21.041Z,17.00
2023-08-29T07:13:09.484Z,16.90
2023-08-29T07:15:57.828Z,16.80
2023-08-29T07:18:47.447Z,16.70
2023-08-29T07:21:37.159Z,16.80
2023-08-29T07:24:25.590Z,16.80
2023-08-29T07:27:13.933Z,17.10
2023-08-29T07:30:02.308Z,17.10
2023-08-29T07:32:50.859Z,17.50
2023-08-29T07:35:39.567Z,17.60
2023-08-29T07:38:29.311Z,17.30
2023-08-29T07:41:17.685Z,17.20
2023-08-29T07:44:06.888Z,17.00
2023-08-29T07:47:13.416Z,17.10
2023-08-29T07:50:03.804Z,17.10
2023-08-29T07:52:52.234Z,17.20
2023-08-29T07:55:43.110Z,17.40
2023-08-29T07:58:31.493Z,17.40
2023-08-29T08:01:20.019Z,17.60
2023-08-29T08:04:08.463Z,17.60
2023-08-29T08:06:56.878Z,17.60
2023-08-29T08:09:45.255Z,17.50
2023-08-29T08:12:36.033Z,17.60
2023-08-29T08:15:24.411Z,17.80
2023-08-29T08:18:12.849Z,17.90
2023-08-29T08:21:01.260Z,18.10
2023-08-29T08:23:50.135Z,18.20
2023-08-29T08:26:38.594Z,18.20
2023-08-29T08:29:28.443Z,18.10
2023-08-29T08:32:16.873Z,18.10
2023-08-29T08:35:07.970Z,17.80
2023-08-29T08:37:56.660Z,17.80
2023-08-29T08:40:45.186Z,17.70
2023-08-29T08:43:33.844Z,17.70
2023-08-29T08:46:24.345Z,17.80
2023-08-29T08:49:14.118Z,17.70
2023-08-29T08:52:04.725Z,17.90
2023-08-29T08:54:53.890Z,18.00
2023-08-29T08:57:44.158Z,17.90
2023-08-29T09:00:33.458Z,17.90
2023-08-29T09:03:23.280Z,18.10
2023-08-29T09:06:13.874Z,18.10
2023-08-29T09:09:17.083Z,18.40
2023-08-29T09:12:06.045Z,18.50
2023-08-29T09:14:55.764Z,18.70
2023-08-29T09:17:48.751Z,18.90
2023-08-29T09:20:38.652Z,18.80
2023-08-29T09:23:30.758Z,18.70
2023-08-29T09:26:19.322Z,18.60
2023-08-29T09:29:18.962Z,18.60
2023-08-29T09:32:14.569Z,18.80
2023-08-29T09:35:03.747Z,19.00
2023-08-29T09:37:54.594Z,19.10
2023-08-29T09:40:50.732Z,19.30
2023-08-29T09:43:48.137Z,19.30
2023-08-29T09:46:37.012Z,19.30
2023-08-29T09:49:32.555Z,19.20
2023-08-29T09:52:22.474Z,18.90
2023-08-29T09:55:15.569Z,19.20
2023-08-29T09:58:06.170Z,19.20
2023-08-29T10:00:55.890Z,19.20
2023-08-29T10:03:44.705Z,19.40
2023-08-29T10:06:33.232Z,19.50
2023-08-29T10:09:21.788Z,19.30
2023-08-29T10:12:11.793Z,19.30
2023-08-29T10:15:01.607Z,19.10
2023-08-29T10:17:51.050Z,19.30
2023-08-29T10:20:44.219Z,19.60
2023-08-29T10:23:33.930Z,19.60
2023-08-29T10:26:26.665Z,19.50
2023-08-29T10:29:17.992Z,19.40
2023-08-29T10:32:08.085Z,19.50
2023-08-29T10:34:56.736Z,19.50
2023-08-29T10:37:45.378Z,19.70
2023-08-29T10:40:37.541Z,19.70
2023-08-29T10:43:27.168Z,19.70
2023-08-29T10:46:17.981Z,19.40
2023-08-29T10:49:12.749Z,19.60
2023-08-29T10:52:11.197Z,19.50
2023-08-29T10:55:05.063Z,19.80
2023-08-29T10:57:54.755Z,19.80
2023-08-29T11:00:56.196Z,19.80
2023-08-29T11:03:51.187Z,19.70
2023-08-29T11:06:53.617Z,19.80
2023-08-29T11:09:43.366Z,19.80
2023-08-29T11:12:33.074Z,20.10
2023-08-29T11:15:21.452Z,20.30
2023-08-29T11:18:23.693Z,20.30
2023-08-29T11:21:13.391Z,20.40
2023-08-29T11:24:15.867Z,20.50
2023-08-29T11:27:05.236Z,20.60
2023-08-29T11:30:11.154Z,20.50
2023-08-29T11:33:05.097Z,20.80
2023-08-29T11:35:53.402Z,20.80
2023-08-29T11:38:45.297Z,21.00
2023-08-29T11:41:40.036Z,21.20
2023-08-29T11:45:41.170Z,21.40
2023-08-29T11:47:50.916Z,21.60
2023-08-29T11:50:41.720Z,21.80
2023-08-29T11:53:32.062Z,21.80
2023-08-29T11:56:22.673Z,22.00
2023-08-29T11:59:14.342Z,22.10
2023-08-29T12:02:02.716Z,22.20
2023-08-29T12:04:57.404Z,22.20
2023-08-29T12:07:46.453Z,22.10
2023-08-29T12:10:34.768Z,22.10
2023-08-29T12:13:24.532Z,21.60
2023-08-29T12:16:17.278Z,21.50
2023-08-29T12:19:07.481Z,21.50
2023-08-29T12:21:56.029Z,21.60
2023-08-29T12:24:54.592Z,21.60
2023-08-29T12:27:45.203Z,21.60
2023-08-29T12:30:35.743Z,21.80
2023-08-29T12:33:24.282Z,21.80
2023-08-29T12:36:12.568Z,21.80
2023-08-29T12:39:00.834Z,21.90
2023-08-29T12:41:49.158Z,22.00
2023-08-29T12:44:37.506Z,21.90
2023-08-29T12:47:27.195Z,22.00
2023-08-29T12:50:18.103Z,21.90
2023-08-29T12:53:06.640Z,21.70
2023-08-29T12:55:55.070Z,21.90
2023-08-29T12:58:43.895Z,21.90
2023-08-29T13:01:33.847Z,21.80
2023-08-29T13:04:23.540Z,21.90
2023-08-29T13:07:11.839Z,21.90
2023-08-29T13:10:00.309Z,21.60
2023-08-29T13:12:48.710Z,21.90
2023-08-29T13:15:48.939Z,22.00
2023-08-29T13:18:39.731Z,21.90
2023-08-29T13:21:29.569Z,22.00
2023-08-29T13:24:19.486Z,21.90
2023-08-29T13:27:09.468Z,21.90
2023-08-29T13:29:58.012Z,22.00
2023-08-29T13:32:46.403Z,22.10
2023-08-29T13:35:34.773Z,22.20
2023-08-29T13:38:24.537Z,22.30
2023-08-29T13:41:13.177Z,22.50
2023-08-29T13:44:01.518Z,22.60
2023-08-29T13:46:49.894Z,22.50
2023-08-29T13:49:38.227Z,22.40
2023-08-29T13:52:26.588Z,22.20
2023-08-29T13:55:16.280Z,22.30
2023-08-29T13:58:05.389Z,22.40
2023-08-29T14:00:54.625Z,22.30
2023-08-29T14:03:43.389Z,22.20
2023-08-29T14:06:31.799Z,22.30
2023-08-29T14:09:20.215Z,22.00
2023-08-29T14:12:10.612Z,21.70
2023-08-29T14:14:59.007Z,21.50
2023-08-29T14:17:47.357Z,21.30
2023-08-29T14:20:42.322Z,21.20
2023-08-29T14:23:30.846Z,21.20
2023-08-29T14:26:19.161Z,21.40
2023-08-29T14:29:08.981Z,21.80
2023-08-29T14:31:57.340Z,21.70
2023-08-29T14:34:45.612Z,21.50
2023-08-29T14:37:33.978Z,21.30
2023-08-29T14:40:26.240Z,21.00
2023-08-29T14:43:14.542Z,21.00
2023-08-29T14:46:05.123Z,21.10
2023-08-29T14:48:53.610Z,21.10
2023-08-29T14:51:41.883Z,20.90
2023-08-29T14:54:32.146Z,20.90
2023-08-29T14:57:20.486Z,20.90
2023-08-29T15:00:10.718Z,20.80
2023-08-29T15:03:00.566Z,20.90
2023-08-29T15:05:55.337Z,20.90
2023-08-29T15:08:44.202Z,20.70
2023-08-29T15:11:32.469Z,20.80
2023-08-29T15:14:20.773Z,20.80
2023-08-29T15:17:09.131Z,20.70
2023-08-29T15:19:59.238Z,20.70
2023-08-29T15:22:47.556Z,20.70
2023-08-29T15:25:35.855Z,20.60
2023-08-29T15:28:29.672Z,20.30
2023-08-29T15:31:18.028Z,20.50
2023-08-29T15:34:08.599Z,20.60
2023-08-29T15:36:59.306Z,20.40
2023-08-29T15:39:47.740Z,20.50
2023-08-29T15:42:38.942Z,20.30
2023-08-29T15:45:27.287Z,20.20
2023-08-29T15:48:18.870Z,20.20
2023-08-29T15:51:07.226Z,19.90
2023-08-29T15:53:56.944Z,20.00
2023-08-29T15:56:45.418Z,19.80
2023-08-29T15:59:33.823Z,19.70
2023-08-29T16:02:22.131Z,19.80
2023-08-29T16:05:11.026Z,19.70
2023-08-29T16:07:59.327Z,19.90
2023-08-29T16:10:49.055Z,20.00
2023-08-29T16:13:37.396Z,20.00
2023-08-29T16:16:25.870Z,20.20
2023-08-29T16:19:14.356Z,20.30
2023-08-29T16:22:02.761Z,20.00
2023-08-29T16:24:54.863Z,19.90
2023-08-29T16:27:44.602Z,20.10
2023-08-29T16:30:33.012Z,20.10
2023-08-29T16:33:21.359Z,20.20
2023-08-29T16:36:09.718Z,20.20
2023-08-29T16:38:58.077Z,20.00
2023-08-29T16:41:46.470Z,20.00
2023-08-29T16:44:36.452Z,20.10
2023-08-29T16:47:24.813Z,20.00
2023-08-29T16:50:13.337Z,19.90
2023-08-29T16:53:01.664Z,20.00
2023-08-29T16:55:51.037Z,19.80
2023-08-29T16:58:39.464Z,19.90
2023-08-29T17:01:29.212Z,20.00
2023-08-29T17:04:17.650Z,19.80
2023-08-29T17:07:06.153Z,19.70
2023-08-29T17:09:54.452Z,19.70
2023-08-29T17:12:42.899Z,19.70
2023-08-29T17:15:31.274Z,19.80
2023-08-29T17:18:21.172Z,20.00
2023-08-29T17:21:09.531Z,20.00
2023-08-29T17:23:57.855Z,20.00
2023-08-29T17:26:46.206Z,19.80
2023-08-29T17:29:34.647Z,19.70
2023-08-29T17:32:23.045Z,19.60
2023-08-29T17:35:12.785Z,19.60
2023-08-29T17:38:01.161Z,19.60
2023-08-29T17:40:49.556Z,19.60
2023-08-29T17:43:38.207Z,19.60
2023-08-29T17:46:26.632Z,19.60
2023-08-29T17:49:15.107Z,19.50
2023-08-29T17:52:05.098Z,19.60
2023-08-29T17:54:53.480Z,19.60
2023-08-29T17:57:42.058Z,19.40
2023-08-29T18:00:30.474Z,19.40
2023-08-29T18:03:18.957Z,19.30
2023-08-29T18:06:22.610Z,19.40
2023-08-29T18:09:15.309Z,19.40
2023-08-29T18:12:03.756Z,19.30
2023-08-29T18:14:52.134Z,19.20
2023-08-29T18:17:40.776Z,19.10
2023-08-29T18:20:29.395Z,19.10
2023-08-29T18:23:17.843Z,19.20
2023-08-29T18:26:07.975Z,19.40
2023-08-29T18:28:56.468Z,19.50
2023-08-29T18:31:44.921Z,19.50
2023-08-29T18:34:34.150Z,19.40
2023-08-29T18:37:22.591Z,19.40
2023-08-29T18:40:11.976Z,19.30
2023-08-29T18:43:03.613Z,19.30
2023-08-29T18:45:52.039Z,19.50
2023-08-29T18:48:40.444Z,19.60
2023-08-29T18:51:28.852Z,19.60
2023-08-29T18:54:17.198Z,19.80
2023-08-29T18:57:05.957Z,19.90
2023-08-29T18:59:55.658Z,19.90
2023-08-29T19:02:45.313Z,19.90
2023-08-29T19:05:36.450Z,19.90
2023-08-29T19:08:25.259Z,19.70
2023-08-29T19:11:15.947Z,19.50
2023-08-29T19:14:04.616Z,19.10
2023-08-29T19:16:54.661Z,18.90
2023-08-29T19:19:43.147Z,18.90
2023-08-29T19:22:32.442Z,18.90
2023-08-29T19:25:20.807Z,19.10
2023-08-29T19:28:09.773Z,19.10
2023-08-29T19:30:58.606Z,19.30
2023-08-29T19:33:48.597Z,19.30
2023-08-29T19:36:37.063Z,19.20
2023-08-29T19:39:25.582Z,19.30
2023-08-29T19:42:14.030Z,19.10
2023-08-29T19:45:02.412Z,19.00
2023-08-29T19:47:50.928Z,18.80
2023-08-29T19:50:40.704Z,18.90
2023-08-29T19:53:29.210Z,19.00
2023-08-29T19:56:18.905Z,19.20
2023-08-29T19:59:07.792Z,19.00
2023-08-29T20:01:56.156Z,18.90
2023-08-29T20:04:44.548Z,18.90
2023-08-29T20:07:34.659Z,18.80
2023-08-29T20:10:23.268Z,18.80
2023-08-29T20:13:11.590Z,18.80
2023-08-29T20:16:09.229Z,18.70
2023-08-29T20:18:57.678Z,18.70
2023-08-29T20:21:46.151Z,18.50
2023-08-29T20:24:36.171Z,18.50
2023-08-29T20:27:24.590Z,18.40
2023-08-29T20:30:14.005Z,18.30
2023-08-29T20:33:02.722Z,18.30
2023-08-29T20:35:51.163Z,18.30
2023-08-29T20:38:39.618Z,18.40
2023-08-29T20:41:29.420Z,18.30
2023-08-29T20:44:17.810Z,18.30
2023-08-29T20:47:06.441Z,18.60
2023-08-29T20:49:54.829Z,18.80
2023-08-29T20:52:43.288Z,19.00
2023-08-29T20:55:32.269Z,19.00
2023-08-29T20:58:22.383Z,19.30
2023-08-29T21:01:10.794Z,19.20
2023-08-29T21:03:59.310Z,19.10
2023-08-29T21:06:47.735Z,19.10
2023-08-29T21:09:36.059Z,19.00
2023-08-29T21:12:24.422Z,19.10
2023-08-29T21:15:14.106Z,19.20
2023-08-29T21:18:02.591Z,19.20
2023-08-29T21:20:53.120Z,19.10
2023-08-29T21:23:42.051Z,19.10
2023-08-29T21:26:30.798Z,18.90
2023-08-29T21:29:19.220Z,19.00
2023-08-29T21:32:09.145Z,18.60
2023-08-29T21:34:57.586Z,18.50
2023-08-29T21:37:45.953Z,18.50
2023-08-29T21:40:38.074Z,18.40
2023-08-29T21:43:26.428Z,18.40
2023-08-29T21:46:14.940Z,18.40
2023-08-29T21:49:04.917Z,18.10
2023-08-29T21:51:53.279Z,17.90
2023-08-29T21:54:41.669Z,17.90
2023-08-29T21:57:30.012Z,18.00
2023-08-29T22:00:19.082Z,18.20
2023-08-29T22:03:07.823Z,18.00
2023-08-29T22:05:57.616Z,17.80
2023-08-29T22:08:45.954Z,17.90
2023-08-29T22:11:34.322Z,17.70
2023-08-29T22:14:22.717Z,17.50
2023-08-29T22:17:11.189Z,17.40
2023-08-29T22:19:59.644Z,17.20
2023-08-29T22:22:51.310Z,17.00
2023-08-29T22:25:39.704Z,17.00
2023-08-29T22:28:28.126Z,17.20
2023-08-29T22:31:16.544Z,17.30
2023-08-29T22:34:05.435Z,17.30
2023-08-29T22:36:53.749Z,17.40
2023-08-29T22:39:43.643Z,17.30
2023-08-29T22:42:31.976Z,17.20
2023-08-29T22:45:20.464Z,17.30
2023-08-29T22:48:10.399Z,17.20
2023-08-29T22:51:01.267Z,17.20
2023-08-29T22:53:49.748Z,17.30
2023-08-29T22:56:39.504Z,17.10
2023-08-29T22:59:28.165Z,17.10
2023-08-29T23:02:16.501Z,17.10
2023-08-29T23:05:06.466Z,16.90
2023-08-29T23:07:54.762Z,17.00
2023-08-29T23:10:43.255Z,17.10
2023-08-29T23:13:33.149Z,17.30
2023-08-29T23:16:21.858Z,17.40
2023-08-29T23:19:10.232Z,17.20
2023-08-29T23:21:58.551Z,16.80
2023-08-29T23:24:46.891Z,16.90
2023-08-29T23:27:35.916Z,17.10
2023-08-29T23:30:25.679Z,17.30
2023-08-29T23:33:15.083Z,17.30
2023-08-29T23:36:03.445Z,17.40
2023-08-29T23:38:52.630Z,17.40
2023-08-29T23:41:40.970Z,17.20
2023-08-29T23:44:29.312Z,17.20
2023-08-29T23:47:18.999Z,17.00
2023-08-29T23:50:08.071Z,16.80
2023-08-29T23:52:56.489Z,16.80
2023-08-29T23:55:44.780Z,16.90
2023-08-29T23:58:33.117Z,17.10
